Smithfield Heights, Australia

5:37 AM AEST on April 30, 2017 (GMT +1000)
Kewarra beach | | Change Station

Elev 85 ft 16.80 °S, 145.68 °E | Updated 3 seconds ago

Clear
Clear
61.9 °F
Feels Like 61.9 °F
N
0.0
Wind Variable Wind from South
Gusts 0.0 mph

Today
High -- | Low -- °F
--% Chance of Precip.
Yesterday
High -- | Low -- °F
Precip. -- in
Pressure 29.95 in
Visibility -9999.0 miles
Clouds
Dew Point 58 °F
Humidity 87%
Rainfall 0.00 in
Snow Depth Not available.
6:29 AM 5:59 PM
Waxing Crescent, 16% visible
METAR YBCS 291900Z 23004KT 190V260 CAVOK 16/13 Q1014 NOSIG
Pressure 29.95 in
Visibility -9999.0 miles
Clouds
Dew Point 58 °F
Humidity 87%
Rainfall 0.00 in
Snow Depth Not available.
6:29 AM 5:59 PM
Waxing Crescent, 16% visible
METAR YBCS 291900Z 23004KT 190V260 CAVOK 16/13 Q1014 NOSIG

Get Severe Weather Alerts

Thanks for signing up!

Be on the lookout for a verification email in your inbox.

You'll start receiving the daily forecast at 8 AM.

×

10-Day Weather Forecast

×

Almanac

Astronomy

Apr. 30, 2017 Rise Set
Actual Time
Civil Twilight
Nautical Twilight
Astronomical Twilight
Moon
Length of Visible Light
Length of Day
Tomorrow will be .
, % of the Moon is Illuminated

Today's Extremes

Country Highs Country Lows

Community

WunderPhotos

WunderBlog® & News

Nearby

Air Quality

  Air Quality AQ Index Pollutant
Not available.

Snow Depth

Station Depth Elevation

Earthquake Activity

City Distance Mag. Time & Date
Minimum magnitude displayed is 2.5.

Coastal Water Temperatures

Place Temperature

Stations

Nearby Weather Stations

Station Location Temp. Windchill Dew Point Humidity Wind Precip. Elev Updated Type